Time;durP1;ratioP1;P1;durP2;ratioP2;P2;SDS_P1;SDS_P2;PMS_P1;PMS_P2;Temp;Humidity;BMP_temperature;BMP_pressure;BME280_temperature;BME280_humidity;BME280_pressure;Samples;Min_cycle;Max_cycle;Signal;HPM_P1;HPM_P2
2023/03/24 00:01:36;;;;;;;10.20;3.20;;;;;;;6.68;100.00;98852.59;107625;1278;71788;-72
2023/03/24 00:04:23;;;;;;;10.20;3.50;;;;;;;6.64;100.00;98853.76;107607;1279;67762;-74
2023/03/24 00:07:13;;;;;;;9.20;3.90;;;;;;;6.62;100.00;98847.75;107627;1277;72266;-74
2023/03/24 00:10:00;;;;;;;9.40;3.30;;;;;;;6.61;100.00;98845.56;107566;1278;59666;-76
2023/03/24 00:12:47;;;;;;;8.60;3.00;;;;;;;6.59;100.00;98845.84;107525;1278;59096;-73
2023/03/24 00:15:35;;;;;;;9.10;3.10;;;;;;;6.57;100.00;98845.11;107516;1278;71830;-73
2023/03/24 00:18:24;;;;;;;9.80;3.20;;;;;;;6.55;100.00;98848.32;107501;1278;66553;-74
2023/03/24 00:21:12;;;;;;;9.10;2.90;;;;;;;6.54;100.00;98855.08;107218;1279;72700;-75
2023/03/24 00:24:00;;;;;;;8.80;3.00;;;;;;;6.53;100.00;98856.98;107508;1279;57378;-73
2023/03/24 00:26:49;;;;;;;10.70;4.10;;;;;;;6.50;100.00;98858.20;107524;1279;59830;-72
2023/03/24 00:29:37;;;;;;;7.90;3.10;;;;;;;6.49;100.00;98853.91;107535;1279;74358;-75
2023/03/24 00:32:24;;;;;;;8.40;3.10;;;;;;;6.47;100.00;98849.42;107517;1278;68008;-74
2023/03/24 00:35:15;;;;;;;8.10;3.50;;;;;;;6.46;100.00;98840.93;107534;1279;71228;-72
2023/03/24 00:38:01;;;;;;;8.80;3.50;;;;;;;6.43;100.00;98832.14;107426;1279;60634;-73
2023/03/24 00:40:49;;;;;;;8.40;3.10;;;;;;;6.41;100.00;98834.25;107532;1279;60195;-71
2023/03/24 00:43:36;;;;;;;8.50;3.70;;;;;;;6.37;100.00;98825.27;107516;1279;73897;-70
2023/03/24 00:46:29;;;;;;;9.20;3.40;;;;;;;6.34;100.00;98827.98;107492;1279;66509;-70
2023/03/24 00:49:16;;;;;;;8.60;3.40;;;;;;;6.31;100.00;98821.47;107482;1279;71415;-75
2023/03/24 00:52:09;;;;;;;8.30;3.20;;;;;;;6.28;100.00;98826.48;107420;1279;60616;-73
2023/03/24 00:54:57;;;;;;;7.80;3.10;;;;;;;6.26;100.00;98829.52;107549;1279;60466;-75
2023/03/24 00:57:48;;;;;;;7.40;3.30;;;;;;;6.23;100.00;98831.65;107482;1278;73109;-74
2023/03/24 01:00:40;;;;;;;9.20;3.70;;;;;;;6.20;100.00;98831.54;107390;1279;68914;-73
2023/03/24 01:03:28;;;;;;;9.00;3.60;;;;;;;6.19;100.00;98828.63;107503;1278;71528;-73
2023/03/24 01:06:17;;;;;;;8.20;3.50;;;;;;;6.17;100.00;98828.27;107500;1279;57753;-72
2023/03/24 01:09:05;;;;;;;9.70;3.80;;;;;;;6.14;100.00;98830.75;107512;1279;59368;-75
2023/03/24 01:11:52;;;;;;;10.10;3.50;;;;;;;6.11;100.00;98828.52;107396;1277;73150;-74
2023/03/24 01:14:38;;;;;;;10.40;4.00;;;;;;;6.10;100.00;98822.66;107654;1278;69075;-74
2023/03/24 01:17:26;;;;;;;9.80;3.70;;;;;;;6.08;100.00;98816.59;107627;1278;73822;-74
2023/03/24 01:20:13;;;;;;;8.00;3.60;;;;;;;6.08;100.00;98816.98;107670;1278;59610;-76
2023/03/24 01:23:03;;;;;;;10.20;3.70;;;;;;;6.05;100.00;98814.17;107509;1277;59141;-78
2023/03/24 01:25:51;;;;;;;9.00;3.80;;;;;;;6.03;100.00;98820.16;107638;1278;73983;-74
2023/03/24 01:28:39;;;;;;;11.30;3.70;;;;;;;6.02;100.00;98821.14;107433;1278;68693;-74
2023/03/24 01:31:26;;;;;;;11.20;3.80;;;;;;;6.01;100.00;98824.55;107612;1278;71588;-73
2023/03/24 01:34:12;;;;;;;8.20;3.90;;;;;;;6.00;100.00;98826.24;107625;1278;58136;-74
2023/03/24 01:37:00;;;;;;;9.00;3.80;;;;;;;6.00;100.00;98826.09;107535;1278;60440;-74
2023/03/24 01:39:46;;;;;;;10.00;3.90;;;;;;;6.00;100.00;98830.15;107476;1279;73075;-73
2023/03/24 01:42:33;;;;;;;9.70;3.90;;;;;;;5.98;100.00;98825.65;107659;1277;67554;-74
2023/03/24 01:45:38;;;;;;;9.60;3.70;;;;;;;5.99;100.00;98828.08;107648;1278;72586;-75
2023/03/24 01:48:39;;;;;;;9.30;4.10;;;;;;;5.97;100.00;98828.54;107630;1277;59478;-74
2023/03/24 01:51:33;;;;;;;9.20;3.60;;;;;;;5.94;100.00;98825.94;107441;1277;60503;-75
2023/03/24 01:54:31;;;;;;;8.00;4.10;;;;;;;5.91;100.00;98826.36;107662;1277;72850;-76
2023/03/24 01:57:45;;;;;;;10.40;3.90;;;;;;;5.89;100.00;98818.10;107462;1278;67879;-75
2023/03/24 02:00:33;;;;;;;9.50;4.60;;;;;;;5.85;100.00;98814.66;107327;1277;71828;-78
2023/03/24 02:03:45;;;;;;;10.30;4.50;;;;;;;5.84;100.00;98809.50;106756;1279;1002154;-72
2023/03/24 02:06:39;;;;;;;9.00;4.10;;;;;;;5.82;100.00;98807.16;107455;1278;58924;-73
2023/03/24 02:09:26;;;;;;;9.20;4.30;;;;;;;5.81;100.00;98813.41;107359;1280;74295;-72
2023/03/24 02:12:13;;;;;;;11.30;4.50;;;;;;;5.81;100.00;98818.16;107313;1281;67905;-72
2023/03/24 02:15:02;;;;;;;10.40;4.70;;;;;;;5.81;100.00;98815.69;107106;1280;72738;-74
2023/03/24 02:18:28;;;;;;;9.00;4.40;;;;;;;5.80;100.00;98816.98;107150;1281;60610;-74
2023/03/24 02:22:08;;;;;;;9.30;4.00;;;;;;;5.83;100.00;98829.15;107278;1281;60315;-76
2023/03/24 02:25:18;;;;;;;11.60;4.50;;;;;;;5.83;100.00;98827.38;106730;1286;73057;-75
2023/03/24 02:28:24;;;;;;;10.10;4.60;;;;;;;5.82;100.00;98835.86;106771;1287;68828;-74
2023/03/24 02:31:42;;;;;;;9.30;4.20;;;;;;;5.81;100.00;98839.64;106739;1286;72600;-75
2023/03/24 02:34:39;;;;;;;;;;;;;;;5.77;100.00;98829.15;106734;1286;58117;-74
2023/03/24 02:37:59;;;;;;;9.50;4.50;;;;;;;5.73;100.00;98823.67;106796;1287;59887;-74
2023/03/24 02:41:02;;;;;;;11.90;5.40;;;;;;;5.73;100.00;98818.26;106970;1283;72643;-74
2023/03/24 02:44:20;;;;;;;10.40;5.70;;;;;;;5.73;100.00;98808.90;107081;1283;67711;-73
2023/03/24 02:47:43;;;;;;;12.90;5.40;;;;;;;5.74;100.00;98802.88;106905;1283;71578;-75
2023/03/24 02:51:13;;;;;;;13.40;6.10;;;;;;;5.73;100.00;98797.13;106836;1283;59693;-74
2023/03/24 02:54:29;;;;;;;15.40;7.10;;;;;;;5.71;100.00;98791.52;106882;1283;60523;-75
2023/03/24 02:57:32;;;;;;;13.50;7.40;;;;;;;5.67;100.00;98793.00;107065;1283;72039;-73
2023/03/24 03:00:51;;;;;;;15.00;7.00;;;;;;;5.63;100.00;98795.98;107141;1279;67915;-72
2023/03/24 03:04:24;;;;;;;17.00;7.50;;;;;;;5.60;100.00;98800.59;107197;1279;72560;-75
2023/03/24 03:07:15;;;;;;;16.10;7.40;;;;;;;5.58;100.00;98792.64;107495;1279;59977;-73
2023/03/24 03:10:26;;;;;;;15.50;7.30;;;;;;;5.58;100.00;98792.80;107533;1277;58886;-72
2023/03/24 03:13:30;;;;;;;13.00;7.20;;;;;;;5.59;100.00;98787.66;107608;1278;73909;-73
2023/03/24 03:16:47;;;;;;;13.70;7.70;;;;;;;5.60;100.00;98789.11;107491;1277;67699;-73
2023/03/24 03:19:43;;;;;;;14.60;7.10;;;;;;;5.62;100.00;98788.83;107356;1277;72736;-72
2023/03/24 03:22:55;;;;;;;12.90;6.50;;;;;;;5.63;100.00;98779.25;107504;1278;59432;-72
2023/03/24 03:25:52;;;;;;;16.80;8.30;;;;;;;5.63;100.00;98783.98;107580;1277;58896;-74
2023/03/24 03:28:48;;;;;;;17.40;8.90;;;;;;;5.64;100.00;98782.15;107665;1278;72001;-72
2023/03/24 03:31:43;;;;;;;16.40;9.30;;;;;;;5.65;100.00;98786.85;107547;1277;69311;-72
2023/03/24 03:34:53;;;;;;;16.50;9.10;;;;;;;5.66;100.00;98784.67;107522;1278;73628;-74
2023/03/24 03:38:22;;;;;;;18.30;8.90;;;;;;;5.69;100.00;98780.01;107467;1278;58452;-72
2023/03/24 03:41:10;;;;;;;17.60;8.20;;;;;;;5.74;100.00;98780.00;107543;1277;59081;-75
2023/03/24 03:43:57;;;;;;;17.80;8.90;;;;;;;5.76;100.00;98774.73;107465;1278;73121;-75
2023/03/24 03:46:44;;;;;;;19.80;10.60;;;;;;;5.78;100.00;98773.64;107443;1278;67835;-77
2023/03/24 03:49:35;;;;;;;17.80;8.90;;;;;;;5.83;100.00;98771.73;107533;1278;72648;-75
2023/03/24 03:52:22;;;;;;;19.70;9.40;;;;;;;5.84;100.00;98771.97;107313;1277;59748;-73
2023/03/24 03:55:09;;;;;;;18.10;10.00;;;;;;;5.86;100.00;98770.29;107550;1277;59068;-73
2023/03/24 03:57:56;;;;;;;18.20;9.10;;;;;;;5.85;100.00;98768.41;107479;1278;71599;-74
2023/03/24 04:01:15;;;;;;;18.80;9.60;;;;;;;5.84;100.00;98767.22;107590;1278;67745;-74
2023/03/24 04:04:36;;;;;;;18.50;9.10;;;;;;;5.83;100.00;98769.98;107593;1277;72598;-74
2023/03/24 04:08:09;;;;;;;16.80;9.50;;;;;;;5.82;100.00;98761.62;106790;1278;1002297;-72
2023/03/24 04:11:33;;;;;;;18.60;8.80;;;;;;;5.83;100.00;98753.95;107328;1279;60079;-75
2023/03/24 04:14:53;;;;;;;20.80;11.00;;;;;;;5.84;100.00;98754.75;107552;1279;73965;-75
2023/03/24 04:18:16;;;;;;;23.40;11.40;;;;;;;5.88;100.00;98752.54;107505;1279;68149;-74
2023/03/24 04:21:35;;;;;;;20.20;10.40;;;;;;;5.90;100.00;98738.24;107497;1279;72866;-73
2023/03/24 04:24:48;;;;;;;20.50;10.40;;;;;;;5.93;100.00;98738.36;107122;1279;58041;-77
2023/03/24 04:27:59;;;;;;;21.50;10.50;;;;;;;5.97;100.00;98732.98;107412;1279;58347;-74
2023/03/24 04:31:24;;;;;;;19.10;9.50;;;;;;;6.00;100.00;98724.69;107441;1278;73129;-77
2023/03/24 04:34:31;;;;;;;20.70;10.10;;;;;;;6.03;100.00;98713.17;107361;1279;66825;-76
2023/03/24 04:37:36;;;;;;;19.60;10.30;;;;;;;6.07;100.00;98714.73;107297;1278;71333;-77
2023/03/24 04:40:33;;;;;;;19.10;10.10;;;;;;;6.12;100.00;98707.98;107128;1279;59755;-75
2023/03/24 04:43:24;;;;;;;19.30;10.90;;;;;;;6.17;100.00;98707.77;107276;1279;61125;-76
2023/03/24 04:46:16;;;;;;;20.30;9.80;;;;;;;6.20;100.00;98696.04;107315;1279;72750;-75
2023/03/24 04:49:29;;;;;;;17.70;8.70;;;;;;;6.24;100.00;98695.20;107331;1279;66787;-75
2023/03/24 04:52:15;;;;;;;16.20;9.10;;;;;;;6.27;100.00;98696.53;107252;1279;72496;-75
2023/03/24 04:55:48;;;;;;;18.00;9.90;;;;;;;6.30;100.00;98694.39;107335;1278;59797;-74
2023/03/24 04:58:35;;;;;;;17.30;8.40;;;;;;;6.34;100.00;98693.17;107369;1279;60438;-76
2023/03/24 05:01:22;;;;;;;18.70;9.70;;;;;;;6.37;100.00;98689.77;107026;1281;72898;-72
2023/03/24 05:04:29;;;;;;;16.20;9.40;;;;;;;6.42;100.00;98679.70;106947;1281;66768;-74
2023/03/24 05:07:20;;;;;;;19.20;10.90;;;;;;;6.40;100.00;98667.88;106879;1281;73055;-74
2023/03/24 05:10:09;;;;;;;19.00;10.60;;;;;;;6.45;100.00;98665.30;106911;1282;60648;-74
2023/03/24 05:13:03;;;;;;;18.60;9.40;;;;;;;6.50;100.00;98673.06;107079;1281;58268;-76
2023/03/24 05:16:10;;;;;;;17.20;8.80;;;;;;;6.54;100.00;98668.27;107041;1281;72956;-73
2023/03/24 05:19:01;;;;;;;17.50;8.80;;;;;;;6.58;100.00;98660.52;107047;1284;68880;-76
2023/03/24 05:21:49;;;;;;;18.90;8.50;;;;;;;6.62;100.00;98649.77;107004;1281;73811;-74
2023/03/24 05:24:36;;;;;;;18.10;9.20;;;;;;;6.67;100.00;98640.08;107043;1281;59547;-74
2023/03/24 05:27:22;;;;;;;16.00;8.50;;;;;;;6.71;100.00;98634.67;107004;1281;58306;-73
2023/03/24 05:30:09;;;;;;;16.20;9.40;;;;;;;6.74;100.00;98629.27;107119;1281;73978;-75
2023/03/24 05:32:56;;;;;;;16.80;9.50;;;;;;;6.77;100.00;98634.96;107215;1279;67750;-75
2023/03/24 05:35:43;;;;;;;16.00;9.00;;;;;;;6.80;100.00;98633.98;107381;1278;73415;-74
2023/03/24 05:38:30;;;;;;;15.20;8.90;;;;;;;6.85;100.00;98625.38;107273;1279;59366;-75
2023/03/24 05:41:16;;;;;;;14.40;8.20;;;;;;;6.89;100.00;98619.70;107391;1279;60342;-74
2023/03/24 05:44:03;;;;;;;16.00;8.80;;;;;;;6.94;100.00;98619.61;107403;1279;74719;-75
2023/03/24 05:46:49;;;;;;;17.10;8.50;;;;;;;7.00;100.00;98623.55;107329;1278;66732;-76
2023/03/24 05:49:36;;;;;;;15.80;7.30;;;;;;;7.06;100.00;98615.48;107477;1279;74012;-78
2023/03/24 05:52:23;;;;;;;15.60;8.30;;;;;;;7.09;100.00;98609.88;107424;1279;59611;-77
2023/03/24 05:55:18;;;;;;;16.00;8.00;;;;;;;7.21;100.00;98611.52;107329;1279;60430;-74
2023/03/24 05:58:05;;;;;;;14.00;7.80;;;;;;;7.30;100.00;98603.83;107407;1278;71931;-73
2023/03/24 06:01:09;;;;;;;13.60;7.70;;;;;;;7.42;100.00;98600.13;107336;1279;66602;-73
2023/03/24 06:03:55;;;;;;;13.60;7.30;;;;;;;7.54;100.00;98598.58;107232;1279;71398;-70
2023/03/24 06:06:44;;;;;;;16.90;7.20;;;;;;;7.64;100.00;98600.14;107379;1279;59384;-70
2023/03/24 06:09:41;;;;;;;14.10;7.10;;;;;;;7.72;100.00;98596.77;107363;1279;60224;-70
2023/03/24 06:12:30;;;;;;;14.60;7.10;;;;;;;7.76;100.00;98591.52;107313;1278;71741;-71
2023/03/24 06:15:26;;;;;;;13.20;6.80;;;;;;;7.80;100.00;98588.54;107182;1279;66392;-69
2023/03/24 06:18:15;;;;;;;13.90;6.40;;;;;;;7.83;100.00;98579.75;107239;1279;72576;-69
2023/03/24 06:21:02;;;;;;;11.90;6.60;;;;;;;7.85;100.00;98575.33;107364;1279;59386;-74
2023/03/24 06:23:51;;;;;;;11.80;6.40;;;;;;;7.87;100.00;98579.59;107484;1280;60026;-75
2023/03/24 06:26:48;;;;;;;12.50;6.00;;;;;;;7.90;100.00;98582.83;107412;1279;73124;-73
2023/03/24 06:29:36;;;;;;;15.20;7.00;;;;;;;7.92;100.00;98573.63;107288;1279;67911;-77
2023/03/24 06:32:25;;;;;;;16.80;7.30;;;;;;;7.96;100.00;98567.48;107239;1279;71110;-73
2023/03/24 06:35:16;;;;;;;13.50;7.50;;;;;;;7.98;100.00;98568.21;107401;1278;57998;-77
2023/03/24 06:38:11;;;;;;;15.70;6.60;;;;;;;8.01;100.00;98568.02;107337;1279;60089;-76
2023/03/24 06:41:03;;;;;;;14.50;6.70;;;;;;;8.07;100.00;98561.49;107426;1279;73833;-74
2023/03/24 06:43:50;;;;;;;12.50;6.40;;;;;;;8.14;100.00;98558.09;107298;1279;68119;-76
2023/03/24 06:46:36;;;;;;;13.90;6.40;;;;;;;8.19;100.00;98547.75;107272;1279;73244;-73
2023/03/24 06:49:23;;;;;;;12.10;5.90;;;;;;;8.30;100.00;98540.67;107431;1279;58083;-74
2023/03/24 06:52:11;;;;;;;11.70;6.20;;;;;;;8.45;100.00;98543.23;107375;1279;57883;-76
2023/03/24 06:54:59;;;;;;;11.30;5.50;;;;;;;8.57;100.00;98540.03;107390;1279;71571;-74
2023/03/24 06:57:47;;;;;;;11.00;5.60;;;;;;;8.71;100.00;98534.15;107294;1278;67617;-75
2023/03/24 07:00:56;;;;;;;11.40;6.20;;;;;;;8.88;100.00;98525.46;107363;1279;72567;-73
2023/03/24 07:03:45;;;;;;;11.10;5.90;;;;;;;9.04;99.84;98517.70;107458;1279;57259;-74
2023/03/24 07:06:34;;;;;;;11.90;5.60;;;;;;;9.17;98.69;98509.20;107481;1279;60125;-73
2023/03/24 07:09:37;;;;;;;13.30;5.40;;;;;;;9.27;97.46;98499.45;107348;1279;73177;-76
2023/03/24 07:12:24;;;;;;;9.10;4.50;;;;;;;9.40;97.12;98507.20;107454;1279;68381;-76
2023/03/24 07:15:13;;;;;;;10.60;4.30;;;;;;;9.52;95.93;98508.84;107317;1279;73753;-74
2023/03/24 07:18:00;;;;;;;11.20;5.40;;;;;;;9.66;95.18;98508.20;107300;1279;58081;-76
2023/03/24 07:21:10;;;;;;;9.90;4.60;;;;;;;9.88;94.44;98502.34;107435;1279;60364;-75
2023/03/24 07:23:57;;;;;;;8.90;4.20;;;;;;;10.14;93.43;98492.83;107449;1278;72888;-75
2023/03/24 07:26:50;;;;;;;11.30;4.80;;;;;;;10.46;91.57;98492.98;107434;1279;66461;-75
2023/03/24 07:29:40;;;;;;;9.80;4.40;;;;;;;10.83;89.97;98483.72;107399;1279;73681;-68
2023/03/24 07:32:37;;;;;;;10.00;4.30;;;;;;;11.13;87.56;98477.52;107384;1279;58492;-70
2023/03/24 07:35:24;;;;;;;9.20;4.30;;;;;;;11.43;86.22;98469.84;107397;1278;58086;-71
2023/03/24 07:38:11;;;;;;;8.90;3.90;;;;;;;11.62;85.19;98463.57;107315;1278;73003;-72
2023/03/24 07:40:59;;;;;;;8.00;3.70;;;;;;;11.62;84.85;98462.05;107273;1279;69075;-68
2023/03/24 07:43:46;;;;;;;8.40;4.00;;;;;;;11.56;84.07;98459.51;107368;1279;73615;-71
2023/03/24 07:46:43;;;;;;;8.80;3.50;;;;;;;11.51;84.42;98460.06;107380;1279;58018;-72
2023/03/24 07:49:30;;;;;;;8.10;3.70;;;;;;;11.43;84.60;98455.98;107297;1279;59204;-71
2023/03/24 07:52:25;;;;;;;8.00;3.70;;;;;;;11.29;84.83;98453.70;107196;1279;72935;-69
2023/03/24 07:55:14;;;;;;;10.10;4.60;;;;;;;11.17;85.47;98447.20;107433;1278;69534;-71
2023/03/24 07:58:10;;;;;;;9.30;4.60;;;;;;;11.10;85.58;98445.90;107383;1279;72377;-68
2023/03/24 08:00:58;;;;;;;9.10;4.30;;;;;;;11.06;86.19;98437.51;107250;1279;60389;-72
2023/03/24 08:03:53;;;;;;;9.50;4.20;;;;;;;11.07;87.27;98438.02;107416;1279;60293;-72
2023/03/24 08:07:04;;;;;;;10.10;4.40;;;;;;;11.06;87.65;98428.95;107329;1279;71600;-75
2023/03/24 08:09:50;;;;;;;10.70;5.00;;;;;;;11.10;88.16;98423.59;107445;1281;67836;-76
2023/03/24 08:12:36;;;;;;;11.30;4.50;;;;;;;11.14;88.33;98418.59;107311;1279;71228;-73
2023/03/24 08:15:25;;;;;;;9.90;4.10;;;;;;;11.11;88.44;98410.48;107466;1279;57390;-74
2023/03/24 08:18:11;;;;;;;9.70;4.20;;;;;;;11.04;89.40;98413.50;107400;1279;61160;-75
2023/03/24 08:20:58;;;;;;;8.70;4.20;;;;;;;11.02;89.96;98399.53;107506;1279;72969;-74
2023/03/24 08:23:44;;;;;;;13.30;4.50;;;;;;;11.03;90.39;98404.45;107336;1278;67964;-75
2023/03/24 08:26:33;;;;;;;10.40;6.30;;;;;;;11.04;91.04;98401.69;107469;1279;71269;-73
2023/03/24 08:29:20;;;;;;;9.40;4.20;;;;;;;11.00;91.50;98404.95;107349;1279;57978;-75
2023/03/24 08:32:07;;;;;;;9.00;4.40;;;;;;;10.95;91.91;98401.00;107494;1279;60410;-75
2023/03/24 08:34:57;;;;;;;9.70;4.40;;;;;;;10.94;92.56;98396.17;107482;1279;71547;-73
2023/03/24 08:37:44;;;;;;;10.00;4.70;;;;;;;10.99;92.71;98392.06;107426;1279;67806;-74
2023/03/24 08:40:33;;;;;;;10.10;4.30;;;;;;;11.06;93.18;98389.59;107392;1279;72509;-75
2023/03/24 08:43:22;;;;;;;9.00;4.30;;;;;;;11.06;93.25;98384.36;107394;1279;59445;-74
2023/03/24 08:46:08;;;;;;;8.60;4.20;;;;;;;11.05;93.19;98375.48;107433;1279;59006;-72
2023/03/24 08:48:58;;;;;;;10.20;4.50;;;;;;;11.19;93.10;98368.30;107423;1279;73245;-75
2023/03/24 08:51:45;;;;;;;9.80;5.00;;;;;;;11.30;92.20;98359.83;107510;1279;66454;-74
2023/03/24 08:54:32;;;;;;;10.20;5.40;;;;;;;11.36;92.16;98348.41;107462;1279;70296;-76
2023/03/24 08:57:20;;;;;;;9.50;4.70;;;;;;;11.31;92.47;98343.12;107430;1279;59556;-74
2023/03/24 09:00:13;;;;;;;10.80;5.30;;;;;;;11.22;92.66;98335.83;107493;1279;61212;-78
2023/03/24 09:03:01;;;;;;;10.40;5.60;;;;;;;11.16;93.18;98336.66;107461;1279;70954;-74
2023/03/24 09:05:48;;;;;;;13.10;5.20;;;;;;;11.12;93.61;98330.05;107487;1279;67606;-75
2023/03/24 09:08:34;;;;;;;9.30;4.70;;;;;;;11.05;93.16;98332.89;107506;1279;72816;-73
2023/03/24 09:11:21;;;;;;;11.30;5.00;;;;;;;10.97;93.47;98322.05;107309;1279;58676;-76
2023/03/24 09:14:08;;;;;;;9.20;5.10;;;;;;;10.93;93.71;98318.89;107462;1279;58839;-75
2023/03/24 09:16:55;;;;;;;9.90;5.50;;;;;;;10.88;93.76;98309.77;107489;1279;73614;-74
2023/03/24 09:19:43;;;;;;;10.30;5.20;;;;;;;10.79;94.00;98304.96;107490;1278;66386;-76
2023/03/24 09:22:30;;;;;;;9.70;5.70;;;;;;;10.82;94.22;98302.31;107476;1279;72762;-76
2023/03/24 09:25:19;;;;;;;12.00;6.00;;;;;;;10.88;93.25;98303.27;107410;1278;59360;-77
2023/03/24 09:28:08;;;;;;;10.60;5.80;;;;;;;11.08;93.05;98294.41;107453;1279;60179;-75
2023/03/24 09:30:59;;;;;;;10.60;5.90;;;;;;;11.37;92.19;98293.05;107319;1279;72286;-77
2023/03/24 09:33:46;;;;;;;10.00;4.90;;;;;;;11.60;90.99;98291.05;107477;1279;66559;-74
2023/03/24 09:36:32;;;;;;;10.80;5.60;;;;;;;11.82;89.16;98276.42;106841;1283;71162;-76
2023/03/24 09:39:20;;;;;;;9.20;5.00;;;;;;;12.17;87.34;98263.86;106872;1283;57465;-77
2023/03/24 09:42:19;;;;;;;10.40;5.20;;;;;;;12.64;85.47;98252.27;106950;1282;59267;-75
2023/03/24 09:45:19;;;;;;;11.10;5.00;;;;;;;13.00;82.71;98243.34;106934;1282;71486;-75
2023/03/24 09:48:23;;;;;;;10.70;4.70;;;;;;;13.33;81.24;98243.52;107033;1282;67705;-75
2023/03/24 09:51:44;;;;;;;9.10;4.20;;;;;;;13.65;79.69;98235.70;106910;1283;71557;-77
2023/03/24 09:54:45;;;;;;;8.90;4.60;;;;;;;13.70;77.46;98225.74;106548;1287;57444;-77
2023/03/24 09:57:39;;;;;;;8.90;4.30;;;;;;;13.66;77.67;98224.27;106603;1287;59176;-82
2023/03/24 10:00:30;;;;;;;9.50;4.60;;;;;;;13.76;77.49;98217.60;106556;1287;71731;-75
2023/03/24 10:03:22;;;;;;;9.70;4.30;;;;;;;14.12;75.78;98208.30;106543;1287;67662;-75
2023/03/24 10:06:24;;;;;;;10.70;5.00;;;;;;;14.57;73.81;98199.10;106405;1287;73009;-76
2023/03/24 10:09:32;;;;;;;10.10;4.80;;;;;;;15.43;70.90;98190.10;106834;1283;57809;-74
2023/03/24 10:12:39;;;;;;;10.30;4.50;;;;;;;16.59;65.32;98190.67;106733;1284;60079;-73
2023/03/24 10:15:40;;;;;;;8.00;4.00;;;;;;;17.13;61.66;98185.92;106938;1284;72147;-74
2023/03/24 10:18:59;;;;;;;9.00;4.50;;;;;;;16.26;63.86;98195.58;106567;1284;66416;-74
2023/03/24 10:22:24;;;;;;;10.20;5.20;;;;;;;15.31;67.90;98195.46;106832;1284;71303;-75
2023/03/24 10:25:31;;;;;;;9.40;5.20;;;;;;;14.57;71.12;98198.96;106833;1283;57692;-77
2023/03/24 10:28:27;;;;;;;10.30;5.60;;;;;;;13.88;74.23;98202.51;106898;1284;58968;-75
2023/03/24 10:31:16;;;;;;;12.50;5.60;;;;;;;13.54;76.46;98201.26;107418;1279;73067;-75
2023/03/24 10:34:04;;;;;;;11.00;6.50;;;;;;;13.47;77.39;98203.37;107466;1280;66750;-75
2023/03/24 10:36:57;;;;;;;11.90;6.30;;;;;;;13.20;78.96;98203.35;107448;1279;72748;-77
2023/03/24 10:39:43;;;;;;;11.30;6.30;;;;;;;12.96;80.36;98192.50;107286;1279;57455;-77
2023/03/24 10:42:34;;;;;;;11.00;6.50;;;;;;;13.01;80.96;98185.85;107426;1279;59078;-75
2023/03/24 10:45:28;;;;;;;11.60;5.90;;;;;;;13.98;77.99;98177.58;107454;1279;72244;-78
2023/03/24 10:48:44;;;;;;;11.80;5.90;;;;;;;14.62;74.74;98167.27;107510;1279;67764;-75
2023/03/24 10:51:35;;;;;;;10.50;6.10;;;;;;;14.86;73.13;98172.00;107433;1279;70824;-75
2023/03/24 10:54:28;;;;;;;11.40;6.70;;;;;;;15.09;71.70;98161.17;107441;1279;57291;-75
2023/03/24 10:57:17;;;;;;;10.60;5.50;;;;;;;15.12;71.71;98166.96;107418;1279;59017;-77
2023/03/24 11:00:28;;;;;;;11.30;5.90;;;;;;;15.25;71.50;98171.52;107264;1279;73813;-78
2023/03/24 11:03:28;;;;;;;9.50;5.50;;;;;;;15.58;69.73;98170.02;107441;1279;68452;-76
2023/03/24 11:06:20;;;;;;;9.80;5.40;;;;;;;15.96;68.58;98155.52;107409;1279;72672;-77
2023/03/24 11:09:19;;;;;;;9.40;4.80;;;;;;;16.85;65.14;98157.23;107024;1279;57306;-74
2023/03/24 11:12:23;;;;;;;8.80;4.90;;;;;;;16.38;65.87;98154.42;107316;1282;60017;-75
2023/03/24 11:15:18;;;;;;;9.60;4.80;;;;;;;15.69;67.80;98170.33;107353;1279;73109;-76
2023/03/24 11:18:14;;;;;;;9.00;5.20;;;;;;;15.22;69.70;98165.17;107471;1281;68898;-77
2023/03/24 11:21:05;;;;;;;10.80;5.40;;;;;;;15.13;70.73;98161.98;107441;1279;71199;-75
2023/03/24 11:23:52;;;;;;;9.10;5.40;;;;;;;15.23;70.54;98164.06;107400;1279;57937;-77
2023/03/24 11:26:43;;;;;;;9.60;4.70;;;;;;;15.22;70.64;98159.24;107043;1279;58946;-76
2023/03/24 11:29:38;;;;;;;9.80;4.80;;;;;;;15.25;70.53;98157.77;107510;1278;73060;-76
2023/03/24 11:32:28;;;;;;;9.10;5.00;;;;;;;15.26;70.96;98153.83;107454;1279;67754;-73
2023/03/24 11:35:17;;;;;;;9.60;5.20;;;;;;;15.12;71.18;98156.41;107420;1279;73548;-78
2023/03/24 11:38:05;;;;;;;9.10;4.40;;;;;;;14.87;72.06;98148.77;107463;1279;57876;-74
2023/03/24 11:41:01;;;;;;;10.00;5.00;;;;;;;14.65;73.25;98140.29;107499;1279;58745;-77
2023/03/24 11:43:48;;;;;;;8.70;4.40;;;;;;;14.51;74.32;98139.94;107288;1279;72825;-75
2023/03/24 11:46:40;;;;;;;9.00;4.70;;;;;;;14.32;75.24;98134.66;107234;1279;67888;-75
2023/03/24 11:49:32;;;;;;;9.60;5.10;;;;;;;14.23;75.71;98131.31;107436;1279;72842;-74
2023/03/24 11:52:38;;;;;;;9.50;5.00;;;;;;;14.09;76.38;98122.35;107326;1279;195220;-78
2023/03/24 11:55:48;;;;;;;9.10;4.40;;;;;;;14.16;76.46;98117.65;107465;1279;60172;-78
2023/03/24 11:58:46;;;;;;;8.20;4.40;;;;;;;14.36;75.56;98117.14;107426;1279;72843;-74
2023/03/24 12:01:43;;;;;;;8.50;4.40;;;;;;;14.39;75.62;98115.73;107432;1279;66768;-75
2023/03/24 12:04:52;;;;;;;9.60;4.50;;;;;;;14.41;76.03;98116.20;107464;1279;72634;-77
2023/03/24 12:08:27;;;;;;;8.50;4.40;;;;;;;14.32;76.24;98106.14;107320;1279;57814;-76
2023/03/24 12:11:56;;;;;;;8.60;3.80;;;;;;;14.31;76.38;98118.05;107501;1279;59178;-78
2023/03/24 12:15:02;;;;;;;18.80;10.30;;;;;;;14.25;77.31;98111.20;107334;1279;73067;-71
2023/03/24 12:18:22;;;;;;;10.90;6.40;;;;;;;14.27;78.08;98114.27;107453;1279;68865;-71
2023/03/24 12:21:17;;;;;;;10.50;4.50;;;;;;;14.27;78.52;98115.52;107405;1279;73711;-71
2023/03/24 12:24:25;;;;;;;8.00;3.30;;;;;;;14.16;78.51;98106.88;107254;1279;58025;-76
2023/03/24 12:27:36;;;;;;;8.50;4.00;;;;;;;14.04;78.81;98110.04;107467;1279;58889;-75
2023/03/24 12:30:42;;;;;;;7.90;3.10;;;;;;;13.95;79.20;98111.96;107439;1279;74172;-75
2023/03/24 12:33:37;;;;;;;7.30;3.00;;;;;;;13.74;79.99;98110.85;107203;1279;66303;-75
2023/03/24 12:36:58;;;;;;;7.30;2.80;;;;;;;13.63;81.10;98106.77;107471;1279;72759;-74
2023/03/24 12:40:10;;;;;;;7.30;3.10;;;;;;;13.55;81.53;98099.02;107472;1279;58358;-75
2023/03/24 12:43:33;;;;;;;7.20;3.30;;;;;;;13.51;81.72;98103.79;107224;1279;60467;-75
2023/03/24 12:47:00;;;;;;;7.40;2.80;;;;;;;13.53;82.05;98104.02;107478;1279;72926;-75
2023/03/24 12:50:11;;;;;;;7.10;3.10;;;;;;;13.52;82.32;98103.91;107420;1278;68489;-78
2023/03/24 12:53:23;;;;;;;7.40;3.20;;;;;;;13.47;82.82;98103.53;107433;1279;71537;-76
2023/03/24 12:56:19;;;;;;;7.90;3.70;;;;;;;13.44;83.13;98105.71;107394;1281;60648;-76
2023/03/24 12:59:47;;;;;;;9.10;3.40;;;;;;;13.39;83.58;98094.75;107338;1279;59933;-76
2023/03/24 13:02:44;;;;;;;7.00;3.00;;;;;;;13.28;84.19;98094.73;107257;1279;72891;-77
2023/03/24 13:05:38;;;;;;;6.90;3.20;;;;;;;13.18;84.61;98096.95;107173;1279;67665;-76
2023/03/24 13:08:31;;;;;;;7.80;3.40;;;;;;;13.15;85.39;98095.62;107441;1279;72350;-76
2023/03/24 13:11:25;;;;;;;8.40;3.40;;;;;;;13.10;86.38;98097.64;107252;1279;58006;-76
2023/03/24 13:14:31;;;;;;;7.60;2.80;;;;;;;13.01;87.33;98099.24;107425;1279;59080;-76
2023/03/24 13:17:58;;;;;;;8.30;3.30;;;;;;;12.96;88.03;98104.23;107310;1279;73002;-77
2023/03/24 13:20:50;;;;;;;7.20;3.00;;;;;;;12.97;88.37;98101.61;107434;1279;68960;-76
2023/03/24 13:24:04;;;;;;;8.60;3.70;;;;;;;12.98;89.53;98101.66;107402;1280;72735;-77
2023/03/24 13:27:27;;;;;;;8.60;3.90;;;;;;;12.89;91.89;98104.69;107103;1279;58197;-79
2023/03/24 13:30:36;;;;;;;8.00;3.50;;;;;;;12.83;93.34;98107.85;107369;1282;60381;-75
2023/03/24 13:33:28;;;;;;;8.20;3.60;;;;;;;12.84;94.06;98107.05;107436;1279;71564;-74
2023/03/24 13:36:42;;;;;;;7.60;6.50;;;;;;;12.95;94.61;98105.91;107411;1279;68766;-77
2023/03/24 13:39:32;;;;;;;8.60;3.50;;;;;;;12.94;94.73;98101.58;107376;1279;71116;-76